• Join FlightAware (Why Join?)
  • Login
  • US Flag GB Flag 
20:02 EDT


 

Airport Tracker/Info


-or-


 

Live Flight TrackerFlight Track Log ✈ N534QS ✈ 08-Jul-2013 ✈ KSRR - KHOU

Flight Track Log - Related Links

Times and Time Zones

All times are in EDT time to prevent confusion due to time zone crossing. See the N534QS flight status page for this flight to view local times or setup timezone preferences in your user account.

Time Position Orientation Groundspeed Altitude Reporting Facility
EDT Latitude Longitude Course Direction KTS MPH feet Rate Location/Type
15:28 33.4878 -105.3033 87° East 367 422 11,800  Level Albuquerque Center
15:29 33.4608 -105.1708 104° East 379 436 12,000 60 Climbing Albuquerque Center
15:30 33.4319 -105.0458 105° East 389 448 12,000  Level Albuquerque Center
15:31 33.4042 -104.9233 105° East 385 443 12,000 1,080 Level Albuquerque Center
15:32 33.3744 -104.7897 105° East 386 444 14,300 2,640 Climbing Albuquerque Center
15:33 33.2183 -104.7755 111° Southeast  Level Estimated
15:33 33.3456 -104.6619 105° East 396 456 17,500  Level Albuquerque Center
15:34 33.2922 -104.5353 117° Southeast 418 481 20,100 2,280 Climbing Albuquerque Center
15:35 33.2269 -104.4097 122° Southeast 428 493 22,300 2,460 Climbing Albuquerque Center
15:36 33.1542 -104.2758 123° Southeast 452 520 25,200 2,460 Climbing Albuquerque Center
15:37 33.0872 -104.1492 122° Southeast 454 522 27,400 2,040 Climbing Albuquerque Center
15:38 33.0169 -104.0175 122° Southeast 468 539 29,400 1,980 Climbing Albuquerque Center
15:39 32.9400 -103.8733 122° Southeast 477 549 31,500 2,040 Climbing Albuquerque Center
15:40 32.8697 -103.7431 123° Southeast 469 540 33,700 2,040 Climbing Albuquerque Center
15:41 32.8111 -103.6342 123° Southeast 459 528 35,700 2,400 Climbing Albuquerque Center
15:42 32.7267 -103.4842 124° Southeast 456 525 38,700 2,400 Climbing Albuquerque Center
15:44 32.6608 -103.3622 123° Southeast 452 520 40,900 1,080 Climbing Fort Worth Center
15:45 32.5936 -103.2369 122° Southeast 446 513 41,000  Climbing Fort Worth Center
15:46 32.5225 -103.1092 123° Southeast 459 528 41,000  Level Fort Worth Center
15:47 32.4489 -102.9817 124° Southeast 464 534 41,000  Level Fort Worth Center
15:48 32.3792 -102.8592 124° Southeast 459 528 41,000  Level Fort Worth Center
15:49 32.3075 -102.7272 123° Southeast 459 528 41,000  Level Fort Worth Center
15:50 32.2336 -102.6000 124° Southeast 459 528 41,000  Level Fort Worth Center
15:51 32.1617 -102.4708 123° Southeast 464 534 41,000  Level Fort Worth Center
15:52 32.0897 -102.3319 121° Southeast 464 534 41,000  Level Fort Worth Center
15:53 32.0197 -102.2033 123° Southeast 464 534 41,000  Level Fort Worth Center
15:54 31.9644 -102.0633 115° Southeast 464 534 41,000  Level Fort Worth Center
15:55 31.9214 -101.9264 110° East 459 528 41,000  Level Fort Worth Center
15:56 31.8742 -101.7847 111° Southeast 459 528 41,000  Level Fort Worth Center
15:57 31.8247 -101.6456 113° Southeast 459 528 41,000  Level Fort Worth Center
15:58 31.7772 -101.5064 112° Southeast 459 528 41,000  Level Fort Worth Center
15:59 31.7292 -101.3700 112° Southeast 454 522 41,000  Level Fort Worth Center
16:00 31.6814 -101.2314 112° Southeast 454 522 41,000  Level Fort Worth Center
16:01 31.6333 -101.0928 112° Southeast 454 522 41,000  Level Fort Worth Center
16:02 31.5850 -100.9567 113° Southeast 454 522 41,000  Level Fort Worth Center
16:03 31.5347 -100.8183 113° Southeast 460 529 41,000  Level Fort Worth Center
16:04 31.4861 -100.6825 113° Southeast 460 529 41,000  Level Fort Worth Center
16:05 31.4431 -100.5664 113° Southeast 454 522 41,000  Level Fort Worth Center
16:06 31.3697 -100.3522 112° Southeast 458 527 41,000  Level Houston Center
16:07 31.3206 -100.2164 113° Southeast 453 521 41,000  Level Houston Center
16:08 31.2628 -100.0531 112° Southeast 452 520 41,000  Level Houston Center
16:10 31.1966 -99.9074 113° Southeast  Level FlightAware Approximate
16:10 31.1631 -99.7819 113° Southeast 454 522 41,000  Level Houston Center
16:11 31.1136 -99.6453 113° Southeast 455 524 41,000  Level Houston Center
16:12 31.0636 -99.5072 113° Southeast 459 528 41,000  Level Houston Center
16:13 31.0133 -99.3694 113° Southeast 462 532 41,000  Level Houston Center
16:14 30.9622 -99.2331 114° Southeast 459 528 41,000  Level Houston Center
16:15 30.9050 -99.0789 113° Southeast 459 528 41,000  Level Houston Center
16:17 30.8542 -98.9392 113° Southeast 464 534 41,000  Level Houston Center
16:18 30.8028 -98.8008 113° Southeast 463 533 41,000  Level Houston Center
16:19 30.7836 -98.6528 99° East 462 532 41,000 -300 Level Houston Center
16:20 30.7675 -98.4778 96° East 462 532 40,500 -1,140 Descending Houston Center
16:21 30.7533 -98.3314 96° East 455 524 38,700 -1,740 Descending Houston Center
16:22 30.7383 -98.1792 97° East 468 539 37,000 -840 Descending Houston Center
16:23 30.7233 -98.0261 96° East 474 545 37,000  Level Houston Center
16:24 30.7086 -97.8719 96° East 476 548 37,000 -840 Level Houston Center
16:25 30.6931 -97.7156 97° East 483 556 35,300 -1,980 Descending Houston Center
16:26 30.6767 -97.5592 97° East 487 560 33,000 -2,400 Descending Houston Center
16:27 30.6575 -97.3783 97° East 485 558 30,400 -2,340 Descending Houston Center
16:28 30.6425 -97.2258 96° East 479 551 28,200 -2,040 Descending Houston Center
16:29 30.6292 -97.0867 96° East 438 504 26,200 -2,040 Descending Houston Center
16:30 30.6147 -96.9553 97° East 412 474 24,000 -2,040 Descending Houston Center
16:31 30.5719 -96.8300 112° Southeast 418 481 22,000 -1,980 Descending Houston Center
16:32 30.5081 -96.7222 125° Southeast 403 464 20,000 -1,980 Descending Houston Center
16:33 30.4442 -96.6117 124° Southeast 408 470 18,000 -1,980 Descending Houston Center
16:34 30.3714 -96.4883 124° Southeast 397 457 16,000 -1,980 Descending Houston Center
16:35 30.3283 -96.4169 125° Southeast 386 444 14,600 -1,920 Descending Houston Center
16:36 30.2817 -96.3350 123° Southeast 377 434 13,100 -1,740 Descending Houston Center
16:36 30.2525 -96.2853 124° Southeast 376 433 12,300 -1,380 Descending Houston Center
16:37 30.1842 -96.1975 132° Southeast 366 421 11,000 -660 Descending Houston Center
16:38 30.0889 -96.1356 151° Southeast 356 410 11,000 -540 Level Houston Center
16:39 30.0253 -96.0683 138° Southeast 314 361 9,900 -1,380 Descending Houston Center
16:40 29.9947 -95.9931 115° Southeast 291 335 8,200 -1,620 Descending Houston Center
16:41 29.9656 -95.9086 112° Southeast 283 326 6,600 -1,380 Descending Houston Center
16:42 29.9444 -95.8519 113° Southeast 276 318 6,100 -600 Descending Houston Center
16:42 29.9303 -95.8114 112° Southeast 275 316 6,000 -120 Descending Houston Center
16:43 29.9008 -95.7308 113° Southeast 273 314 6,000  Level Houston Center
16:44 29.8719 -95.6522 113° Southeast 269 310 6,000 -600 Level Houston Center
16:45 29.8453 -95.5775 112° Southeast 258 297 4,800 -1,020 Descending Houston Center
16:46 29.8203 -95.5092 113° Southeast 240 276 4,000 -420 Descending Houston Center
16:47 29.7967 -95.4569 118° Southeast 195 224 4,000 -540 Level Houston Center
16:48 29.7542 -95.4094 136° Southeast 181 208 3,000 -1,020 Descending Houston Center
16:50 29.7189 -95.3672 134° Southeast 182 209 2,000 -900 Descending Houston Center
16:51 29.6872 -95.3289 134° Southeast 176 203 1,200 -780 Descending Houston Center
16:52 29.6544 -95.2892 134° Southeast 118 136 300 -540 Descending Houston Center
16:53 29.6392 -95.2722 136° Southeast 131 151 100 -300 Descending Houston Center